sensor_id;sensor_type;location;lat;lon;timestamp;pressure;altitude;pressure_sealevel;temperature
69007;BMP180;56061;51.748;19.620;2022-11-04T00:00:10;98503.00;;;8.70
69007;BMP180;56061;51.748;19.620;2022-11-04T00:02:37;98497.00;;;8.68
69007;BMP180;56061;51.748;19.620;2022-11-04T00:05:04;98492.80;;;8.60
69007;BMP180;56061;51.748;19.620;2022-11-04T00:07:30;98491.00;;;8.60
69007;BMP180;56061;51.748;19.620;2022-11-04T00:10:15;98488.00;;;8.64
69007;BMP180;56061;51.748;19.620;2022-11-04T00:12:42;98484.00;;;8.70
69007;BMP180;56061;51.748;19.620;2022-11-04T00:15:08;98482.80;;;8.66
69007;BMP180;56061;51.748;19.620;2022-11-04T00:17:54;98476.60;;;8.60
69007;BMP180;56061;51.748;19.620;2022-11-04T00:20:20;98476.60;;;8.60
69007;BMP180;56061;51.748;19.620;2022-11-04T00:23:15;98473.20;;;8.70
69007;BMP180;56061;51.748;19.620;2022-11-04T00:26:00;98469.80;;;8.78
69007;BMP180;56061;51.748;19.620;2022-11-04T00:28:45;98466.40;;;8.80
69007;BMP180;56061;51.748;19.620;2022-11-04T00:31:12;98465.60;;;8.90
69007;BMP180;56061;51.748;19.620;2022-11-04T00:33:57;98461.20;;;8.90
69007;BMP180;56061;51.748;19.620;2022-11-04T00:36:25;98459.00;;;9.00
69007;BMP180;56061;51.748;19.620;2022-11-04T00:38:52;98463.20;;;9.00
69007;BMP180;56061;51.748;19.620;2022-11-04T00:41:19;98462.60;;;9.00
69007;BMP180;56061;51.748;19.620;2022-11-04T00:44:01;98457.00;;;9.00
69007;BMP180;56061;51.748;19.620;2022-11-04T00:46:31;98455.60;;;9.00
69007;BMP180;56061;51.748;19.620;2022-11-04T00:48:58;98451.40;;;9.00
69007;BMP180;56061;51.748;19.620;2022-11-04T00:51:25;98444.00;;;9.00
69007;BMP180;56061;51.748;19.620;2022-11-04T00:53:53;98442.20;;;9.10
69007;BMP180;56061;51.748;19.620;2022-11-04T00:56:20;98441.40;;;9.10
69007;BMP180;56061;51.748;19.620;2022-11-04T00:58:46;98440.00;;;9.10
69007;BMP180;56061;51.748;19.620;2022-11-04T01:01:16;98425.80;;;9.10
69007;BMP180;56061;51.748;19.620;2022-11-04T01:03:48;98419.80;;;9.10
69007;BMP180;56061;51.748;19.620;2022-11-04T01:06:16;98418.20;;;9.10
69007;BMP180;56061;51.748;19.620;2022-11-04T01:08:42;98415.60;;;9.10
69007;BMP180;56061;51.748;19.620;2022-11-04T01:11:10;98405.20;;;9.10
69007;BMP180;56061;51.748;19.620;2022-11-04T01:13:38;98409.60;;;9.08
69007;BMP180;56061;51.748;19.620;2022-11-04T01:16:08;98403.40;;;9.00
69007;BMP180;56061;51.748;19.620;2022-11-04T01:18:35;98407.80;;;9.00
69007;BMP180;56061;51.748;19.620;2022-11-04T01:21:05;98401.20;;;9.00
69007;BMP180;56061;51.748;19.620;2022-11-04T01:23:35;98403.60;;;9.06
69007;BMP180;56061;51.748;19.620;2022-11-04T01:26:22;98399.40;;;9.10
69007;BMP180;56061;51.748;19.620;2022-11-04T01:28:51;98400.40;;;9.10
69007;BMP180;56061;51.748;19.620;2022-11-04T01:31:21;98391.80;;;9.10
69007;BMP180;56061;51.748;19.620;2022-11-04T01:33:49;98391.20;;;9.10
69007;BMP180;56061;51.748;19.620;2022-11-04T01:36:17;98393.80;;;9.10
69007;BMP180;56061;51.748;19.620;2022-11-04T01:38:44;98394.00;;;9.10
69007;BMP180;56061;51.748;19.620;2022-11-04T01:41:30;98388.40;;;9.10
69007;BMP180;56061;51.748;19.620;2022-11-04T01:44:42;98389.00;;;9.10
69007;BMP180;56061;51.748;19.620;2022-11-04T01:46:52;98386.20;;;9.10
69007;BMP180;56061;51.748;19.620;2022-11-04T01:49:49;98385.00;;;9.10
69007;BMP180;56061;51.748;19.620;2022-11-04T01:52:27;98387.20;;;9.10
69007;BMP180;56061;51.748;19.620;2022-11-04T01:54:58;98384.20;;;9.12
69007;BMP180;56061;51.748;19.620;2022-11-04T01:57:35;98376.40;;;9.12
69007;BMP180;56061;51.748;19.620;2022-11-04T02:00:07;98372.20;;;9.20
69007;BMP180;56061;51.748;19.620;2022-11-04T02:02:45;98369.60;;;9.18
69007;BMP180;56061;51.748;19.620;2022-11-04T02:05:15;98368.00;;;9.10
69007;BMP180;56061;51.748;19.620;2022-11-04T02:07:42;98357.80;;;9.10
69007;BMP180;56061;51.748;19.620;2022-11-04T02:12:38;98351.80;;;9.10
69007;BMP180;56061;51.748;19.620;2022-11-04T02:30:06;98333.20;;;9.12
69007;BMP180;56061;51.748;19.620;2022-11-04T02:33:09;98335.00;;;9.20
69007;BMP180;56061;51.748;19.620;2022-11-04T02:35:48;98329.80;;;9.20
69007;BMP180;56061;51.748;19.620;2022-11-04T02:38:50;98335.80;;;9.20
69007;BMP180;56061;51.748;19.620;2022-11-04T02:44:41;98333.60;;;9.20
69007;BMP180;56061;51.748;19.620;2022-11-04T02:47:16;98329.20;;;9.20
69007;BMP180;56061;51.748;19.620;2022-11-04T02:49:57;98321.40;;;9.20
69007;BMP180;56061;51.748;19.620;2022-11-04T02:52:58;98316.00;;;9.20
69007;BMP180;56061;51.748;19.620;2022-11-04T02:55:43;98313.20;;;9.20
69007;BMP180;56061;51.748;19.620;2022-11-04T02:58:22;98309.40;;;9.20
69007;BMP180;56061;51.748;19.620;2022-11-04T03:00:53;98304.80;;;9.20
69007;BMP180;56061;51.748;19.620;2022-11-04T03:03:28;98304.20;;;9.20
69007;BMP180;56061;51.748;19.620;2022-11-04T03:05:58;98303.60;;;9.20
69007;BMP180;56061;51.748;19.620;2022-11-04T03:08:34;98296.60;;;9.20
69007;BMP180;56061;51.748;19.620;2022-11-04T03:11:10;98293.00;;;9.20
69007;BMP180;56061;51.748;19.620;2022-11-04T03:13:45;98278.20;;;9.20
69007;BMP180;56061;51.748;19.620;2022-11-04T03:16:19;98266.80;;;9.20
69007;BMP180;56061;51.748;19.620;2022-11-04T03:19:00;98269.80;;;9.20
69007;BMP180;56061;51.748;19.620;2022-11-04T03:21:32;98281.40;;;9.16
69007;BMP180;56061;51.748;19.620;2022-11-04T03:24:00;98283.20;;;9.18
69007;BMP180;56061;51.748;19.620;2022-11-04T03:26:54;98284.60;;;9.20
69007;BMP180;56061;51.748;19.620;2022-11-04T03:29:28;98279.40;;;9.20
69007;BMP180;56061;51.748;19.620;2022-11-04T03:34:31;98265.20;;;9.14
69007;BMP180;56061;51.748;19.620;2022-11-04T03:36:59;98269.40;;;9.10
69007;BMP180;56061;51.748;19.620;2022-11-04T03:39:25;98261.20;;;9.10
69007;BMP180;56061;51.748;19.620;2022-11-04T03:41:57;98260.40;;;9.10
69007;BMP180;56061;51.748;19.620;2022-11-04T03:44:25;98260.00;;;9.10
69007;BMP180;56061;51.748;19.620;2022-11-04T03:46:53;98269.40;;;9.10
69007;BMP180;56061;51.748;19.620;2022-11-04T03:49:22;98254.00;;;9.10
69007;BMP180;56061;51.748;19.620;2022-11-04T03:51:50;98257.60;;;9.00
69007;BMP180;56061;51.748;19.620;2022-11-04T03:54:18;98250.20;;;9.00
69007;BMP180;56061;51.748;19.620;2022-11-04T03:57:05;98250.60;;;9.00
69007;BMP180;56061;51.748;19.620;2022-11-04T04:00:01;98259.60;;;8.90
69007;BMP180;56061;51.748;19.620;2022-11-04T04:05:50;98258.40;;;8.90
69007;BMP180;56061;51.748;19.620;2022-11-04T04:08:34;98255.80;;;8.80
69007;BMP180;56061;51.748;19.620;2022-11-04T04:14:16;98248.20;;;8.90
69007;BMP180;56061;51.748;19.620;2022-11-04T04:20:03;98244.40;;;8.90
69007;BMP180;56061;51.748;19.620;2022-11-04T04:22:40;98247.60;;;8.90
69007;BMP180;56061;51.748;19.620;2022-11-04T04:25:11;98244.80;;;8.90
69007;BMP180;56061;51.748;19.620;2022-11-04T04:28:00;98234.20;;;8.90
69007;BMP180;56061;51.748;19.620;2022-11-04T04:30:27;98230.60;;;8.90
69007;BMP180;56061;51.748;19.620;2022-11-04T04:33:05;98232.40;;;8.94
69007;BMP180;56061;51.748;19.620;2022-11-04T04:35:42;98236.20;;;9.00
69007;BMP180;56061;51.748;19.620;2022-11-04T04:38:29;98237.40;;;9.00
69007;BMP180;56061;51.748;19.620;2022-11-04T04:41:20;98233.80;;;9.10
69007;BMP180;56061;51.748;19.620;2022-11-04T04:44:20;98232.00;;;9.00
69007;BMP180;56061;51.748;19.620;2022-11-04T04:47:08;98230.00;;;8.90
69007;BMP180;56061;51.748;19.620;2022-11-04T04:49:36;98230.60;;;8.90
69007;BMP180;56061;51.748;19.620;2022-11-04T04:52:06;98231.20;;;8.94
69007;BMP180;56061;51.748;19.620;2022-11-04T04:54:32;98235.60;;;9.00
69007;BMP180;56061;51.748;19.620;2022-11-04T04:56:59;98234.80;;;9.06
69007;BMP180;56061;51.748;19.620;2022-11-04T04:59:25;98226.80;;;9.10
69007;BMP180;56061;51.748;19.620;2022-11-04T05:01:52;98229.80;;;9.10
69007;BMP180;56061;51.748;19.620;2022-11-04T05:04:18;98231.80;;;9.20
69007;BMP180;56061;51.748;19.620;2022-11-04T05:06:45;98228.60;;;9.20
69007;BMP180;56061;51.748;19.620;2022-11-04T05:09:11;98231.60;;;9.22
69007;BMP180;56061;51.748;19.620;2022-11-04T05:11:38;98233.20;;;9.22
69007;BMP180;56061;51.748;19.620;2022-11-04T05:14:04;98224.00;;;9.20
69007;BMP180;56061;51.748;19.620;2022-11-04T05:16:31;98210.80;;;9.20
69007;BMP180;56061;51.748;19.620;2022-11-04T05:19:03;98209.80;;;9.20
69007;BMP180;56061;51.748;19.620;2022-11-04T05:21:29;98217.80;;;9.20
69007;BMP180;56061;51.748;19.620;2022-11-04T05:23:56;98204.60;;;9.10
69007;BMP180;56061;51.748;19.620;2022-11-04T05:26:23;98208.40;;;9.10
69007;BMP180;56061;51.748;19.620;2022-11-04T05:28:49;98202.80;;;9.10
69007;BMP180;56061;51.748;19.620;2022-11-04T05:31:16;98206.00;;;9.10
69007;BMP180;56061;51.748;19.620;2022-11-04T05:33:43;98207.60;;;9.10
69007;BMP180;56061;51.748;19.620;2022-11-04T05:36:15;98197.60;;;9.18
69007;BMP180;56061;51.748;19.620;2022-11-04T05:38:42;98199.20;;;9.18
69007;BMP180;56061;51.748;19.620;2022-11-04T05:41:11;98200.80;;;9.10
69007;BMP180;56061;51.748;19.620;2022-11-04T05:43:56;98199.40;;;9.10
69007;BMP180;56061;51.748;19.620;2022-11-04T05:46:24;98194.00;;;9.06
69007;BMP180;56061;51.748;19.620;2022-11-04T05:48:51;98195.20;;;9.00
69007;BMP180;56061;51.748;19.620;2022-11-04T05:51:22;98192.80;;;9.00
69007;BMP180;56061;51.748;19.620;2022-11-04T05:53:50;98195.80;;;8.96
69007;BMP180;56061;51.748;19.620;2022-11-04T05:56:16;98206.80;;;9.00
69007;BMP180;56061;51.748;19.620;2022-11-04T05:58:43;98207.40;;;9.10
69007;BMP180;56061;51.748;19.620;2022-11-04T06:01:24;98213.00;;;9.10
69007;BMP180;56061;51.748;19.620;2022-11-04T06:03:52;98208.60;;;9.12
69007;BMP180;56061;51.748;19.620;2022-11-04T06:06:21;98210.60;;;9.18
69007;BMP180;56061;51.748;19.620;2022-11-04T06:08:51;98212.00;;;9.10
69007;BMP180;56061;51.748;19.620;2022-11-04T06:11:19;98211.80;;;9.08
69007;BMP180;56061;51.748;19.620;2022-11-04T06:13:46;98210.20;;;9.10
69007;BMP180;56061;51.748;19.620;2022-11-04T06:16:13;98212.60;;;9.10
69007;BMP180;56061;51.748;19.620;2022-11-04T06:18:40;98206.80;;;9.20
69007;BMP180;56061;51.748;19.620;2022-11-04T06:23:43;98212.60;;;9.30
69007;BMP180;56061;51.748;19.620;2022-11-04T06:26:11;98208.60;;;9.30
69007;BMP180;56061;51.748;19.620;2022-11-04T06:28:38;98212.80;;;9.30
69007;BMP180;56061;51.748;19.620;2022-11-04T06:31:08;98210.80;;;9.30
69007;BMP180;56061;51.748;19.620;2022-11-04T06:33:35;98206.20;;;9.26
69007;BMP180;56061;51.748;19.620;2022-11-04T06:36:05;98215.80;;;9.30
69007;BMP180;56061;51.748;19.620;2022-11-04T06:38:34;98219.60;;;9.32
69007;BMP180;56061;51.748;19.620;2022-11-04T06:41:03;98220.00;;;9.40
69007;BMP180;56061;51.748;19.620;2022-11-04T06:43:31;98219.20;;;9.42
69007;BMP180;56061;51.748;19.620;2022-11-04T06:46:00;98219.20;;;9.50
69007;BMP180;56061;51.748;19.620;2022-11-04T06:48:29;98213.60;;;9.50
69007;BMP180;56061;51.748;19.620;2022-11-04T06:50:57;98209.00;;;9.50
69007;BMP180;56061;51.748;19.620;2022-11-04T06:53:25;98205.60;;;9.50
69007;BMP180;56061;51.748;19.620;2022-11-04T06:55:53;98200.00;;;9.58
69007;BMP180;56061;51.748;19.620;2022-11-04T06:58:26;98203.20;;;9.58
69007;BMP180;56061;51.748;19.620;2022-11-04T07:00:52;98198.20;;;9.60
69007;BMP180;56061;51.748;19.620;2022-11-04T07:03:20;98193.60;;;9.60
69007;BMP180;56061;51.748;19.620;2022-11-04T07:05:46;98201.80;;;9.70
69007;BMP180;56061;51.748;19.620;2022-11-04T07:08:13;98196.60;;;9.80
69007;BMP180;56061;51.748;19.620;2022-11-04T07:10:39;98197.00;;;9.90
69007;BMP180;56061;51.748;19.620;2022-11-04T07:13:06;98189.00;;;10.00
69007;BMP180;56061;51.748;19.620;2022-11-04T07:15:32;98185.80;;;10.06
69007;BMP180;56061;51.748;19.620;2022-11-04T07:17:59;98189.60;;;10.10
69007;BMP180;56061;51.748;19.620;2022-11-04T07:20:25;98181.20;;;10.20
69007;BMP180;56061;51.748;19.620;2022-11-04T07:22:55;98184.80;;;10.20
69007;BMP180;56061;51.748;19.620;2022-11-04T07:25:22;98182.60;;;10.20
69007;BMP180;56061;51.748;19.620;2022-11-04T07:27:49;98183.60;;;10.10
69007;BMP180;56061;51.748;19.620;2022-11-04T07:30:15;98176.00;;;10.12
69007;BMP180;56061;51.748;19.620;2022-11-04T07:32:42;98175.60;;;10.22
69007;BMP180;56061;51.748;19.620;2022-11-04T07:35:08;98177.20;;;10.32
69007;BMP180;56061;51.748;19.620;2022-11-04T07:37:35;98170.60;;;10.40
69007;BMP180;56061;51.748;19.620;2022-11-04T07:40:02;98170.20;;;10.50
69007;BMP180;56061;51.748;19.620;2022-11-04T07:42:30;98169.60;;;10.58
69007;BMP180;56061;51.748;19.620;2022-11-04T07:44:56;98171.20;;;10.60
69007;BMP180;56061;51.748;19.620;2022-11-04T07:47:23;98167.20;;;10.60
69007;BMP180;56061;51.748;19.620;2022-11-04T07:49:49;98163.60;;;10.60
69007;BMP180;56061;51.748;19.620;2022-11-04T07:52:16;98165.60;;;10.66
69007;BMP180;56061;51.748;19.620;2022-11-04T07:54:42;98160.20;;;10.62
69007;BMP180;56061;51.748;19.620;2022-11-04T07:57:08;98156.20;;;10.68
69007;BMP180;56061;51.748;19.620;2022-11-04T07:59:35;98156.60;;;10.70
69007;BMP180;56061;51.748;19.620;2022-11-04T08:02:01;98147.80;;;10.80
69007;BMP180;56061;51.748;19.620;2022-11-04T08:04:28;98143.20;;;10.80
69007;BMP180;56061;51.748;19.620;2022-11-04T08:06:54;98142.40;;;10.80
69007;BMP180;56061;51.748;19.620;2022-11-04T08:09:21;98140.60;;;10.80
69007;BMP180;56061;51.748;19.620;2022-11-04T08:11:48;98137.40;;;10.80
69007;BMP180;56061;51.748;19.620;2022-11-04T08:14:15;98136.60;;;10.86
69007;BMP180;56061;51.748;19.620;2022-11-04T08:16:41;98137.40;;;10.90
69007;BMP180;56061;51.748;19.620;2022-11-04T08:19:08;98131.40;;;11.00
69007;BMP180;56061;51.748;19.620;2022-11-04T08:21:35;98136.00;;;11.20
69007;BMP180;56061;51.748;19.620;2022-11-04T08:24:01;98128.80;;;11.30
69007;BMP180;56061;51.748;19.620;2022-11-04T08:26:31;98130.40;;;11.44
69007;BMP180;56061;51.748;19.620;2022-11-04T08:28:57;98121.80;;;11.50
69007;BMP180;56061;51.748;19.620;2022-11-04T08:31:27;98123.20;;;11.70
69007;BMP180;56061;51.748;19.620;2022-11-04T08:33:55;98124.00;;;11.80
69007;BMP180;56061;51.748;19.620;2022-11-04T08:36:30;98113.60;;;11.88
69007;BMP180;56061;51.748;19.620;2022-11-04T08:38:57;98113.40;;;11.82
69007;BMP180;56061;51.748;19.620;2022-11-04T08:41:28;98113.40;;;11.82
69007;BMP180;56061;51.748;19.620;2022-11-04T08:43:58;98108.40;;;11.90
69007;BMP180;56061;51.748;19.620;2022-11-04T08:46:27;98108.00;;;11.90
69007;BMP180;56061;51.748;19.620;2022-11-04T08:48:54;98112.00;;;12.00
69007;BMP180;56061;51.748;19.620;2022-11-04T08:51:24;98106.40;;;12.08
69007;BMP180;56061;51.748;19.620;2022-11-04T08:53:52;98106.00;;;12.14
69007;BMP180;56061;51.748;19.620;2022-11-04T08:56:24;98112.00;;;12.20
69007;BMP180;56061;51.748;19.620;2022-11-04T08:58:52;98115.40;;;12.26
69007;BMP180;56061;51.748;19.620;2022-11-04T09:01:21;98119.00;;;12.24
69007;BMP180;56061;51.748;19.620;2022-11-04T09:03:49;98117.20;;;12.20
69007;BMP180;56061;51.748;19.620;2022-11-04T09:06:24;98115.80;;;12.10
69007;BMP180;56061;51.748;19.620;2022-11-04T09:08:51;98126.60;;;12.00
69007;BMP180;56061;51.748;19.620;2022-11-04T09:11:20;98125.00;;;11.90
69007;BMP180;56061;51.748;19.620;2022-11-04T09:13:47;98114.80;;;11.80
69007;BMP180;56061;51.748;19.620;2022-11-04T09:16:14;98125.20;;;11.80
69007;BMP180;56061;51.748;19.620;2022-11-04T09:18:41;98112.40;;;11.70
69007;BMP180;56061;51.748;19.620;2022-11-04T09:21:09;98110.60;;;11.62
69007;BMP180;56061;51.748;19.620;2022-11-04T09:23:35;98127.00;;;11.60
69007;BMP180;56061;51.748;19.620;2022-11-04T09:26:07;98121.80;;;11.50
69007;BMP180;56061;51.748;19.620;2022-11-04T09:28:34;98122.80;;;11.40
69007;BMP180;56061;51.748;19.620;2022-11-04T09:31:07;98124.60;;;11.30
69007;BMP180;56061;51.748;19.620;2022-11-04T09:33:34;98115.20;;;11.26
69007;BMP180;56061;51.748;19.620;2022-11-04T09:36:01;98112.00;;;11.20
69007;BMP180;56061;51.748;19.620;2022-11-04T09:38:27;98108.20;;;11.20
69007;BMP180;56061;51.748;19.620;2022-11-04T09:40:54;98107.40;;;11.20
69007;BMP180;56061;51.748;19.620;2022-11-04T09:43:36;98099.20;;;11.30
69007;BMP180;56061;51.748;19.620;2022-11-04T09:46:08;98096.80;;;11.30
69007;BMP180;56061;51.748;19.620;2022-11-04T09:48:44;98081.60;;;11.40
69007;BMP180;56061;51.748;19.620;2022-11-04T09:51:12;98092.60;;;11.50
69007;BMP180;56061;51.748;19.620;2022-11-04T09:54:07;98090.00;;;11.50
69007;BMP180;56061;51.748;19.620;2022-11-04T09:56:43;98086.20;;;11.60
69007;BMP180;56061;51.748;19.620;2022-11-04T09:59:19;98090.00;;;11.60
69007;BMP180;56061;51.748;19.620;2022-11-04T10:08:29;98077.80;;;11.66
69007;BMP180;56061;51.748;19.620;2022-11-04T10:17:26;98078.60;;;11.80
69007;BMP180;56061;51.748;19.620;2022-11-04T10:23:24;98068.00;;;11.88
69007;BMP180;56061;51.748;19.620;2022-11-04T10:28:57;98076.80;;;11.90
69007;BMP180;56061;51.748;19.620;2022-11-04T10:31:27;98073.40;;;11.90
69007;BMP180;56061;51.748;19.620;2022-11-04T10:34:05;98069.60;;;12.00
69007;BMP180;56061;51.748;19.620;2022-11-04T10:36:36;98064.60;;;12.10
69007;BMP180;56061;51.748;19.620;2022-11-04T10:39:15;98062.00;;;12.20
69007;BMP180;56061;51.748;19.620;2022-11-04T10:41:46;98066.80;;;12.30
69007;BMP180;56061;51.748;19.620;2022-11-04T10:44:27;98057.80;;;12.48
69007;BMP180;56061;51.748;19.620;2022-11-04T10:50:02;98063.60;;;12.70
69007;BMP180;56061;51.748;19.620;2022-11-04T10:52:49;98059.80;;;12.80
69007;BMP180;56061;51.748;19.620;2022-11-04T10:55:41;98058.60;;;12.86
69007;BMP180;56061;51.748;19.620;2022-11-04T10:58:24;98052.20;;;12.90
69007;BMP180;56061;51.748;19.620;2022-11-04T11:00:52;98052.60;;;13.10
69007;BMP180;56061;51.748;19.620;2022-11-04T11:03:32;98049.40;;;13.20
69007;BMP180;56061;51.748;19.620;2022-11-04T11:06:33;98040.20;;;13.34
69007;BMP180;56061;51.748;19.620;2022-11-04T11:09:13;98034.00;;;13.50
69007;BMP180;56061;51.748;19.620;2022-11-04T11:11:49;98033.40;;;13.60
69007;BMP180;56061;51.748;19.620;2022-11-04T11:17:16;98046.00;;;13.70
69007;BMP180;56061;51.748;19.620;2022-11-04T11:19:55;98035.20;;;13.70
69007;BMP180;56061;51.748;19.620;2022-11-04T11:22:41;98030.40;;;13.72
69007;BMP180;56061;51.748;19.620;2022-11-04T11:25:29;98037.00;;;13.76
69007;BMP180;56061;51.748;19.620;2022-11-04T11:28:22;98028.60;;;13.80
69007;BMP180;56061;51.748;19.620;2022-11-04T11:30:58;98030.60;;;13.80
69007;BMP180;56061;51.748;19.620;2022-11-04T11:33:30;98021.80;;;13.80
69007;BMP180;56061;51.748;19.620;2022-11-04T11:36:03;98018.20;;;13.90
69007;BMP180;56061;51.748;19.620;2022-11-04T11:38:59;98029.80;;;13.90
69007;BMP180;56061;51.748;19.620;2022-11-04T11:41:31;98025.40;;;13.90
69007;BMP180;56061;51.748;19.620;2022-11-04T11:44:16;98030.20;;;13.90
69007;BMP180;56061;51.748;19.620;2022-11-04T11:46:52;98025.80;;;14.00
69007;BMP180;56061;51.748;19.620;2022-11-04T11:49:27;98017.00;;;14.00
69007;BMP180;56061;51.748;19.620;2022-11-04T11:52:25;98012.40;;;14.00
69007;BMP180;56061;51.748;19.620;2022-11-04T11:55:24;98011.80;;;14.10
69007;BMP180;56061;51.748;19.620;2022-11-04T12:00:57;98003.80;;;14.14
69007;BMP180;56061;51.748;19.620;2022-11-04T12:03:53;98000.40;;;14.10
69007;BMP180;56061;51.748;19.620;2022-11-04T12:07:30;98005.60;;;14.00
69007;BMP180;56061;51.748;19.620;2022-11-04T12:10:31;98006.00;;;14.00
69007;BMP180;56061;51.748;19.620;2022-11-04T12:13:49;97999.60;;;14.00
69007;BMP180;56061;51.748;19.620;2022-11-04T12:16:49;98001.20;;;14.00
69007;BMP180;56061;51.748;19.620;2022-11-04T12:19:32;97993.20;;;14.00
69007;BMP180;56061;51.748;19.620;2022-11-04T12:22:39;97995.20;;;13.94
69007;BMP180;56061;51.748;19.620;2022-11-04T12:25:50;97993.00;;;13.90
69007;BMP180;56061;51.748;19.620;2022-11-04T12:28:46;97992.00;;;13.90
69007;BMP180;56061;51.748;19.620;2022-11-04T12:31:45;97995.60;;;13.90
69007;BMP180;56061;51.748;19.620;2022-11-04T12:40:30;98005.00;;;13.80
69007;BMP180;56061;51.748;19.620;2022-11-04T12:43:19;98002.60;;;13.80
69007;BMP180;56061;51.748;19.620;2022-11-04T12:45:57;98006.20;;;13.78
69007;BMP180;56061;51.748;19.620;2022-11-04T12:52:00;97998.80;;;13.80
69007;BMP180;56061;51.748;19.620;2022-11-04T12:54:52;97998.00;;;13.80
69007;BMP180;56061;51.748;19.620;2022-11-04T12:58:04;97999.40;;;13.80
69007;BMP180;56061;51.748;19.620;2022-11-04T13:00:37;97996.60;;;13.80
69007;BMP180;56061;51.748;19.620;2022-11-04T13:05:57;97988.60;;;13.90
69007;BMP180;56061;51.748;19.620;2022-11-04T13:08:37;97994.40;;;13.90
69007;BMP180;56061;51.748;19.620;2022-11-04T13:11:30;97992.80;;;13.90
69007;BMP180;56061;51.748;19.620;2022-11-04T13:14:26;97994.80;;;13.90
69007;BMP180;56061;51.748;19.620;2022-11-04T13:17:00;98001.00;;;14.00
69007;BMP180;56061;51.748;19.620;2022-11-04T13:19:36;97999.20;;;14.00
69007;BMP180;56061;51.748;19.620;2022-11-04T13:22:15;97993.40;;;14.00
69007;BMP180;56061;51.748;19.620;2022-11-04T13:27:36;97984.00;;;14.10
69007;BMP180;56061;51.748;19.620;2022-11-04T13:33:00;97988.40;;;14.00
69007;BMP180;56061;51.748;19.620;2022-11-04T13:35:41;97991.00;;;13.84
69007;BMP180;56061;51.748;19.620;2022-11-04T13:38:16;97988.80;;;13.80
69007;BMP180;56061;51.748;19.620;2022-11-04T13:41:21;97990.80;;;13.70
69007;BMP180;56061;51.748;19.620;2022-11-04T13:43:57;97997.00;;;13.60
69007;BMP180;56061;51.748;19.620;2022-11-04T13:46:29;97992.20;;;13.50
69007;BMP180;56061;51.748;19.620;2022-11-04T13:51:44;97998.60;;;13.30
69007;BMP180;56061;51.748;19.620;2022-11-04T13:54:32;97996.40;;;13.20
69007;BMP180;56061;51.748;19.620;2022-11-04T13:57:15;97995.00;;;13.10
69007;BMP180;56061;51.748;19.620;2022-11-04T14:02:48;98001.00;;;13.00
69007;BMP180;56061;51.748;19.620;2022-11-04T14:18:40;97996.40;;;12.72
69007;BMP180;56061;51.748;19.620;2022-11-04T14:21:12;97993.60;;;12.70
69007;BMP180;56061;51.748;19.620;2022-11-04T14:23:45;97994.40;;;12.60
69007;BMP180;56061;51.748;19.620;2022-11-04T14:26:16;97997.00;;;12.60
69007;BMP180;56061;51.748;19.620;2022-11-04T14:29:00;98001.60;;;12.54
69007;BMP180;56061;51.748;19.620;2022-11-04T14:31:37;98001.00;;;12.50
69007;BMP180;56061;51.748;19.620;2022-11-04T14:34:06;98006.00;;;12.50
69007;BMP180;56061;51.748;19.620;2022-11-04T14:36:38;98001.60;;;12.50
69007;BMP180;56061;51.748;19.620;2022-11-04T14:44:28;98015.60;;;12.40
69007;BMP180;56061;51.748;19.620;2022-11-04T14:47:27;98017.80;;;12.30
69007;BMP180;56061;51.748;19.620;2022-11-04T14:50:02;98012.60;;;12.30
69007;BMP180;56061;51.748;19.620;2022-11-04T14:52:45;98019.20;;;12.30
69007;BMP180;56061;51.748;19.620;2022-11-04T14:55:19;98018.00;;;12.22
69007;BMP180;56061;51.748;19.620;2022-11-04T14:57:50;98023.80;;;12.20
69007;BMP180;56061;51.748;19.620;2022-11-04T15:00:30;98023.60;;;12.20
69007;BMP180;56061;51.748;19.620;2022-11-04T15:05:59;98023.60;;;12.20
69007;BMP180;56061;51.748;19.620;2022-11-04T15:08:36;98024.40;;;12.16
69007;BMP180;56061;51.748;19.620;2022-11-04T15:13:47;98030.60;;;12.10
69007;BMP180;56061;51.748;19.620;2022-11-04T15:16:24;98028.60;;;12.10
69007;BMP180;56061;51.748;19.620;2022-11-04T15:18:54;98029.60;;;12.10
69007;BMP180;56061;51.748;19.620;2022-11-04T15:21:22;98027.00;;;12.00
69007;BMP180;56061;51.748;19.620;2022-11-04T15:23:52;98029.60;;;12.00
69007;BMP180;56061;51.748;19.620;2022-11-04T15:26:24;98031.40;;;12.00
69007;BMP180;56061;51.748;19.620;2022-11-04T15:28:59;98028.40;;;12.00
69007;BMP180;56061;51.748;19.620;2022-11-04T15:31:31;98032.60;;;12.00
69007;BMP180;56061;51.748;19.620;2022-11-04T15:34:01;98032.80;;;12.00
69007;BMP180;56061;51.748;19.620;2022-11-04T15:36:37;98028.60;;;12.00
69007;BMP180;56061;51.748;19.620;2022-11-04T15:39:19;98032.00;;;12.00
69007;BMP180;56061;51.748;19.620;2022-11-04T15:41:49;98031.00;;;12.00
69007;BMP180;56061;51.748;19.620;2022-11-04T15:44:36;98028.80;;;12.00
69007;BMP180;56061;51.748;19.620;2022-11-04T15:49:44;98031.00;;;12.00
69007;BMP180;56061;51.748;19.620;2022-11-04T15:52:16;98021.00;;;12.00
69007;BMP180;56061;51.748;19.620;2022-11-04T15:54:46;98016.00;;;12.00
69007;BMP180;56061;51.748;19.620;2022-11-04T15:57:18;98016.20;;;12.00
69007;BMP180;56061;51.748;19.620;2022-11-04T15:59:59;98015.20;;;12.00
69007;BMP180;56061;51.748;19.620;2022-11-04T16:02:31;98018.60;;;12.00
69007;BMP180;56061;51.748;19.620;2022-11-04T16:05:06;98014.20;;;12.00
69007;BMP180;56061;51.748;19.620;2022-11-04T16:07:37;98016.00;;;12.00
69007;BMP180;56061;51.748;19.620;2022-11-04T16:10:32;98013.80;;;11.98
69007;BMP180;56061;51.748;19.620;2022-11-04T16:13:01;98016.60;;;12.00
69007;BMP180;56061;51.748;19.620;2022-11-04T16:18:20;98009.00;;;11.92
69007;BMP180;56061;51.748;19.620;2022-11-04T16:20:48;98014.20;;;11.94
69007;BMP180;56061;51.748;19.620;2022-11-04T16:23:20;98010.60;;;11.92
69007;BMP180;56061;51.748;19.620;2022-11-04T16:26:03;98007.60;;;11.90
69007;BMP180;56061;51.748;19.620;2022-11-04T16:28:37;98003.40;;;11.90
69007;BMP180;56061;51.748;19.620;2022-11-04T16:31:25;98003.00;;;11.90
69007;BMP180;56061;51.748;19.620;2022-11-04T16:33:53;97994.80;;;11.88
69007;BMP180;56061;51.748;19.620;2022-11-04T16:36:20;98001.20;;;11.80
69007;BMP180;56061;51.748;19.620;2022-11-04T16:38:58;98003.20;;;11.80